Idaho Falls Regional Airport
KIDA : now visible

Airfield :











YOU CAN JOIN US ON...

 
LOGIN :

Register | Disclaimer

   EN    FR    IT 

 









Legend :    VFR   Marginal VFR   IFR   Intensive IFR   Very Intensive IFR
Visi :
Ceiling :
>= 8 km
>= 3000ft
5 to 8 km
1000 to 3000 ft
1500m to 5 km
500 to 1000 ft
800 to 1500m
200 to 500 ft
< 800m
< 200 ft
Symbols :   Thunderstorms  Fog  Heavy snow  Heavy precipitations  Wind > 20 kt






- Airport Elevation : 4744 ft
- IATA code : IDA


KIDA - Idaho Falls Regional

CURRENT METAR :
  • 131653Z 22004KT 10SM CLR 03/M06 A3019 RMK AO2 SLP242 T00331061

EXPIRED METARs :
  • 131553Z 00000KT 10SM CLR M02/M06 A3018 RMK AO2 SLP251 T10171061
  • 131453Z 01003KT 10SM CLR M07/M10 A3017 RMK AO2 SLP252 T10671100 53005

TAF KIDA
Valid from the 13 at 12:00 until the 14 at 12:00 UTC


131120Z 1312/1412 VRB06KT P6SM BKN200
FM131800 24006KT P6SM SCT200
FM140300 01005KT P6SM SKC



MET'MAP, your aeronautical weather chart ! - Copyright ORBIFLY December 2007 - Disclaimer

ORBIFLY MET'MAP TEAM :

Programming & Development : Alexandra Zaïnal
Concept & Development : Baudouin d'Aumeries
Co-Development & Prog : Marc-Olivier Méhu
Technical & hardware support : Manuel Goepfert

Contact : metmap@orbifly.com




SOURCES & CREDITS :

   NOAA       Earth
Advisory